sensor_id;sensor_type;location;lat;lon;timestamp;P1;durP1;ratioP1;P2;durP2;ratioP2
850;SDS011;412;51.400;7.480;2022-07-23T00:01:36;17.80;;;15.90;;
850;SDS011;412;51.400;7.480;2022-07-23T00:04:02;17.53;;;15.40;;
850;SDS011;412;51.400;7.480;2022-07-23T00:06:28;17.50;;;15.57;;
850;SDS011;412;51.400;7.480;2022-07-23T00:08:53;17.43;;;14.50;;
850;SDS011;412;51.400;7.480;2022-07-23T00:11:19;19.87;;;15.13;;
850;SDS011;412;51.400;7.480;2022-07-23T00:13:47;19.90;;;15.23;;
850;SDS011;412;51.400;7.480;2022-07-23T00:16:13;19.17;;;14.73;;
850;SDS011;412;51.400;7.480;2022-07-23T00:18:38;18.30;;;15.30;;
850;SDS011;412;51.400;7.480;2022-07-23T00:21:04;17.40;;;15.60;;
850;SDS011;412;51.400;7.480;2022-07-23T00:23:30;17.63;;;15.67;;
850;SDS011;412;51.400;7.480;2022-07-23T00:25:56;21.40;;;18.03;;
850;SDS011;412;51.400;7.480;2022-07-23T00:28:22;19.50;;;17.17;;
850;SDS011;412;51.400;7.480;2022-07-23T00:30:47;17.67;;;15.73;;
850;SDS011;412;51.400;7.480;2022-07-23T00:33:13;20.00;;;15.70;;
850;SDS011;412;51.400;7.480;2022-07-23T00:35:39;17.73;;;15.90;;
850;SDS011;412;51.400;7.480;2022-07-23T00:38:06;18.77;;;16.67;;
850;SDS011;412;51.400;7.480;2022-07-23T00:40:34;17.73;;;16.20;;
850;SDS011;412;51.400;7.480;2022-07-23T00:43:01;25.40;;;17.97;;
850;SDS011;412;51.400;7.480;2022-07-23T00:45:27;19.83;;;17.80;;
850;SDS011;412;51.400;7.480;2022-07-23T00:47:53;20.00;;;17.30;;
850;SDS011;412;51.400;7.480;2022-07-23T00:50:19;19.67;;;17.67;;
850;SDS011;412;51.400;7.480;2022-07-23T00:52:45;19.37;;;17.37;;
850;SDS011;412;51.400;7.480;2022-07-23T00:55:11;20.97;;;18.10;;
850;SDS011;412;51.400;7.480;2022-07-23T00:57:38;18.00;;;16.30;;
850;SDS011;412;51.400;7.480;2022-07-23T01:00:05;19.60;;;17.70;;
850;SDS011;412;51.400;7.480;2022-07-23T01:02:34;20.30;;;18.23;;
850;SDS011;412;51.400;7.480;2022-07-23T01:04:59;23.57;;;17.63;;
850;SDS011;412;51.400;7.480;2022-07-23T01:07:25;21.37;;;18.30;;
850;SDS011;412;51.400;7.480;2022-07-23T01:09:52;19.63;;;17.37;;
850;SDS011;412;51.400;7.480;2022-07-23T01:12:19;20.07;;;18.07;;
850;SDS011;412;51.400;7.480;2022-07-23T01:14:44;20.57;;;18.37;;
850;SDS011;412;51.400;7.480;2022-07-23T01:17:10;20.23;;;18.17;;
850;SDS011;412;51.400;7.480;2022-07-23T01:19:36;20.20;;;18.20;;
850;SDS011;412;51.400;7.480;2022-07-23T01:22:02;19.47;;;17.47;;
850;SDS011;412;51.400;7.480;2022-07-23T01:24:29;20.33;;;17.93;;
850;SDS011;412;51.400;7.480;2022-07-23T01:26:55;21.90;;;18.77;;
850;SDS011;412;51.400;7.480;2022-07-23T01:29:21;20.30;;;18.20;;
850;SDS011;412;51.400;7.480;2022-07-23T01:31:47;18.67;;;16.00;;
850;SDS011;412;51.400;7.480;2022-07-23T01:34:13;18.50;;;16.43;;
850;SDS011;412;51.400;7.480;2022-07-23T01:36:39;18.83;;;16.83;;
850;SDS011;412;51.400;7.480;2022-07-23T01:39:05;20.37;;;18.20;;
850;SDS011;412;51.400;7.480;2022-07-23T01:41:32;19.60;;;17.50;;
850;SDS011;412;51.400;7.480;2022-07-23T01:43:58;19.60;;;17.60;;
850;SDS011;412;51.400;7.480;2022-07-23T01:46:24;20.10;;;18.10;;
850;SDS011;412;51.400;7.480;2022-07-23T01:48:50;20.53;;;18.43;;
850;SDS011;412;51.400;7.480;2022-07-23T01:51:16;21.00;;;18.23;;
850;SDS011;412;51.400;7.480;2022-07-23T01:53:41;21.17;;;18.97;;
850;SDS011;412;51.400;7.480;2022-07-23T01:56:07;21.83;;;17.87;;
850;SDS011;412;51.400;7.480;2022-07-23T01:58:33;19.73;;;17.63;;
850;SDS011;412;51.400;7.480;2022-07-23T02:00:59;20.23;;;18.23;;
850;SDS011;412;51.400;7.480;2022-07-23T02:03:25;22.23;;;18.67;;
850;SDS011;412;51.400;7.480;2022-07-23T02:05:51;21.77;;;19.57;;
850;SDS011;412;51.400;7.480;2022-07-23T02:08:17;22.23;;;19.93;;
850;SDS011;412;51.400;7.480;2022-07-23T02:10:43;21.70;;;19.50;;
850;SDS011;412;51.400;7.480;2022-07-23T02:13:09;20.20;;;18.07;;
850;SDS011;412;51.400;7.480;2022-07-23T02:15:35;21.30;;;17.87;;
850;SDS011;412;51.400;7.480;2022-07-23T02:18:01;21.13;;;18.80;;
850;SDS011;412;51.400;7.480;2022-07-23T02:20:27;22.87;;;19.47;;
850;SDS011;412;51.400;7.480;2022-07-23T02:22:52;20.97;;;18.70;;
850;SDS011;412;51.400;7.480;2022-07-23T02:25:18;20.43;;;18.37;;
850;SDS011;412;51.400;7.480;2022-07-23T02:27:44;20.50;;;18.40;;
850;SDS011;412;51.400;7.480;2022-07-23T02:30:10;21.40;;;19.20;;
850;SDS011;412;51.400;7.480;2022-07-23T02:32:36;21.20;;;19.00;;
850;SDS011;412;51.400;7.480;2022-07-23T02:35:02;20.47;;;18.33;;
850;SDS011;412;51.400;7.480;2022-07-23T02:37:29;20.47;;;18.43;;
850;SDS011;412;51.400;7.480;2022-07-23T02:39:54;22.20;;;18.27;;
850;SDS011;412;51.400;7.480;2022-07-23T02:42:20;19.87;;;17.47;;
850;SDS011;412;51.400;7.480;2022-07-23T02:44:46;20.23;;;18.13;;
850;SDS011;412;51.400;7.480;2022-07-23T02:47:12;19.77;;;17.67;;
850;SDS011;412;51.400;7.480;2022-07-23T02:49:38;21.30;;;19.10;;
850;SDS011;412;51.400;7.480;2022-07-23T02:52:03;22.43;;;18.27;;
850;SDS011;412;51.400;7.480;2022-07-23T02:54:29;21.87;;;19.67;;
850;SDS011;412;51.400;7.480;2022-07-23T02:56:55;20.43;;;18.33;;
850;SDS011;412;51.400;7.480;2022-07-23T02:59:20;21.13;;;18.03;;
850;SDS011;412;51.400;7.480;2022-07-23T03:01:46;20.13;;;17.90;;
850;SDS011;412;51.400;7.480;2022-07-23T03:04:12;19.20;;;17.20;;
850;SDS011;412;51.400;7.480;2022-07-23T03:06:38;20.30;;;16.93;;
850;SDS011;412;51.400;7.480;2022-07-23T03:09:04;20.57;;;18.47;;
850;SDS011;412;51.400;7.480;2022-07-23T03:11:30;19.13;;;17.17;;
850;SDS011;412;51.400;7.480;2022-07-23T03:13:56;19.60;;;17.80;;
850;SDS011;412;51.400;7.480;2022-07-23T03:16:22;20.17;;;18.07;;
850;SDS011;412;51.400;7.480;2022-07-23T03:18:47;19.70;;;17.60;;
850;SDS011;412;51.400;7.480;2022-07-23T03:21:13;19.53;;;17.60;;
850;SDS011;412;51.400;7.480;2022-07-23T03:23:39;20.17;;;18.07;;
850;SDS011;412;51.400;7.480;2022-07-23T03:26:05;19.23;;;17.37;;
850;SDS011;412;51.400;7.480;2022-07-23T03:28:31;20.40;;;18.20;;
850;SDS011;412;51.400;7.480;2022-07-23T03:30:57;19.50;;;17.60;;
850;SDS011;412;51.400;7.480;2022-07-23T03:33:23;19.93;;;17.87;;
850;SDS011;412;51.400;7.480;2022-07-23T03:35:48;19.50;;;17.47;;
850;SDS011;412;51.400;7.480;2022-07-23T03:38:15;20.80;;;16.43;;
850;SDS011;412;51.400;7.480;2022-07-23T03:40:41;21.63;;;17.97;;
850;SDS011;412;51.400;7.480;2022-07-23T03:43:07;19.23;;;16.13;;
850;SDS011;412;51.400;7.480;2022-07-23T03:45:32;19.10;;;17.10;;
850;SDS011;412;51.400;7.480;2022-07-23T03:47:59;20.27;;;18.17;;
850;SDS011;412;51.400;7.480;2022-07-23T03:50:24;19.33;;;17.23;;
850;SDS011;412;51.400;7.480;2022-07-23T03:52:50;21.97;;;19.60;;
850;SDS011;412;51.400;7.480;2022-07-23T03:55:16;19.10;;;17.30;;
850;SDS011;412;51.400;7.480;2022-07-23T03:57:42;20.63;;;18.57;;
850;SDS011;412;51.400;7.480;2022-07-23T04:00:09;18.70;;;16.90;;
850;SDS011;412;51.400;7.480;2022-07-23T04:02:36;18.13;;;16.50;;
850;SDS011;412;51.400;7.480;2022-07-23T04:05:03;17.20;;;15.60;;
850;SDS011;412;51.400;7.480;2022-07-23T04:07:29;18.60;;;16.67;;
850;SDS011;412;51.400;7.480;2022-07-23T04:09:55;17.90;;;16.20;;
850;SDS011;412;51.400;7.480;2022-07-23T04:12:22;18.40;;;16.50;;
850;SDS011;412;51.400;7.480;2022-07-23T04:14:48;18.37;;;16.67;;
850;SDS011;412;51.400;7.480;2022-07-23T04:17:14;17.70;;;15.90;;
850;SDS011;412;51.400;7.480;2022-07-23T04:19:39;18.60;;;16.80;;
850;SDS011;412;51.400;7.480;2022-07-23T04:22:10;17.73;;;16.03;;
850;SDS011;412;51.400;7.480;2022-07-23T04:24:36;19.00;;;16.00;;
850;SDS011;412;51.400;7.480;2022-07-23T04:27:03;19.30;;;16.23;;
850;SDS011;412;51.400;7.480;2022-07-23T04:29:29;21.07;;;18.87;;
850;SDS011;412;51.400;7.480;2022-07-23T04:31:54;21.07;;;17.43;;
850;SDS011;412;51.400;7.480;2022-07-23T04:34:20;20.73;;;17.37;;
850;SDS011;412;51.400;7.480;2022-07-23T04:36:47;18.80;;;16.80;;
850;SDS011;412;51.400;7.480;2022-07-23T04:39:12;24.90;;;19.07;;
850;SDS011;412;51.400;7.480;2022-07-23T04:41:39;20.83;;;18.60;;
850;SDS011;412;51.400;7.480;2022-07-23T04:44:04;20.87;;;18.63;;
850;SDS011;412;51.400;7.480;2022-07-23T04:46:30;22.93;;;19.13;;
850;SDS011;412;51.400;7.480;2022-07-23T04:48:56;23.93;;;18.50;;
850;SDS011;412;51.400;7.480;2022-07-23T04:51:22;22.33;;;19.33;;
850;SDS011;412;51.400;7.480;2022-07-23T04:53:48;30.43;;;19.47;;
850;SDS011;412;51.400;7.480;2022-07-23T04:56:13;22.77;;;19.83;;
850;SDS011;412;51.400;7.480;2022-07-23T04:58:39;26.03;;;21.07;;
850;SDS011;412;51.400;7.480;2022-07-23T05:01:05;23.27;;;19.80;;
850;SDS011;412;51.400;7.480;2022-07-23T05:03:31;21.40;;;19.20;;
850;SDS011;412;51.400;7.480;2022-07-23T05:05:56;24.67;;;20.97;;
850;SDS011;412;51.400;7.480;2022-07-23T05:08:22;22.13;;;19.60;;
850;SDS011;412;51.400;7.480;2022-07-23T05:10:47;22.23;;;18.60;;
850;SDS011;412;51.400;7.480;2022-07-23T05:13:16;14.10;;;12.80;;
850;SDS011;412;51.400;7.480;2022-07-23T05:15:43;20.20;;;18.10;;
850;SDS011;412;51.400;7.480;2022-07-23T05:18:09;19.70;;;17.80;;
850;SDS011;412;51.400;7.480;2022-07-23T05:20:35;19.10;;;17.17;;
850;SDS011;412;51.400;7.480;2022-07-23T05:23:00;21.60;;;19.30;;
850;SDS011;412;51.400;7.480;2022-07-23T05:25:26;24.93;;;19.47;;
850;SDS011;412;51.400;7.480;2022-07-23T05:27:52;23.33;;;20.00;;
850;SDS011;412;51.400;7.480;2022-07-23T05:30:18;19.97;;;17.90;;
850;SDS011;412;51.400;7.480;2022-07-23T05:32:43;21.93;;;19.67;;
850;SDS011;412;51.400;7.480;2022-07-23T05:35:09;21.73;;;19.60;;
850;SDS011;412;51.400;7.480;2022-07-23T05:37:35;22.37;;;20.07;;
850;SDS011;412;51.400;7.480;2022-07-23T05:40:08;23.10;;;20.80;;
850;SDS011;412;51.400;7.480;2022-07-23T05:42:35;24.40;;;21.50;;
850;SDS011;412;51.400;7.480;2022-07-23T05:45:02;24.43;;;21.83;;
850;SDS011;412;51.400;7.480;2022-07-23T05:47:28;24.47;;;20.40;;
850;SDS011;412;51.400;7.480;2022-07-23T05:49:54;27.33;;;24.33;;
850;SDS011;412;51.400;7.480;2022-07-23T05:52:19;26.53;;;22.20;;
850;SDS011;412;51.400;7.480;2022-07-23T05:54:45;22.40;;;20.00;;
850;SDS011;412;51.400;7.480;2022-07-23T05:57:11;22.43;;;19.80;;
850;SDS011;412;51.400;7.480;2022-07-23T05:59:37;21.30;;;19.00;;
850;SDS011;412;51.400;7.480;2022-07-23T06:02:02;23.03;;;19.13;;
850;SDS011;412;51.400;7.480;2022-07-23T06:04:28;25.40;;;20.17;;
850;SDS011;412;51.400;7.480;2022-07-23T06:06:54;27.53;;;21.10;;
850;SDS011;412;51.400;7.480;2022-07-23T06:09:19;23.23;;;19.00;;
850;SDS011;412;51.400;7.480;2022-07-23T06:11:45;22.77;;;18.77;;
850;SDS011;412;51.400;7.480;2022-07-23T06:14:11;20.30;;;18.10;;
850;SDS011;412;51.400;7.480;2022-07-23T06:16:36;19.40;;;17.50;;
850;SDS011;412;51.400;7.480;2022-07-23T06:19:02;20.83;;;18.53;;
850;SDS011;412;51.400;7.480;2022-07-23T06:21:28;25.50;;;19.17;;
850;SDS011;412;51.400;7.480;2022-07-23T06:23:56;21.87;;;19.57;;
850;SDS011;412;51.400;7.480;2022-07-23T06:26:21;21.80;;;19.20;;
850;SDS011;412;51.400;7.480;2022-07-23T06:28:47;24.13;;;19.03;;
850;SDS011;412;51.400;7.480;2022-07-23T06:31:13;18.57;;;16.77;;
850;SDS011;412;51.400;7.480;2022-07-23T06:33:38;19.87;;;17.77;;
850;SDS011;412;51.400;7.480;2022-07-23T06:36:04;20.90;;;18.80;;
850;SDS011;412;51.400;7.480;2022-07-23T06:38:30;21.33;;;18.40;;
850;SDS011;412;51.400;7.480;2022-07-23T06:40:56;20.17;;;18.07;;
850;SDS011;412;51.400;7.480;2022-07-23T06:43:21;19.77;;;17.67;;
850;SDS011;412;51.400;7.480;2022-07-23T06:45:47;19.73;;;17.70;;
850;SDS011;412;51.400;7.480;2022-07-23T06:48:13;19.83;;;16.63;;
850;SDS011;412;51.400;7.480;2022-07-23T06:50:38;19.03;;;17.03;;
850;SDS011;412;51.400;7.480;2022-07-23T06:53:04;19.17;;;17.27;;
850;SDS011;412;51.400;7.480;2022-07-23T06:55:30;20.47;;;17.80;;
850;SDS011;412;51.400;7.480;2022-07-23T06:57:56;20.70;;;18.50;;
850;SDS011;412;51.400;7.480;2022-07-23T07:00:24;19.10;;;17.20;;
850;SDS011;412;51.400;7.480;2022-07-23T07:02:52;20.70;;;18.43;;
850;SDS011;412;51.400;7.480;2022-07-23T07:05:19;19.77;;;17.67;;
850;SDS011;412;51.400;7.480;2022-07-23T07:07:44;19.73;;;17.73;;
850;SDS011;412;51.400;7.480;2022-07-23T07:10:10;19.47;;;17.47;;
850;SDS011;412;51.400;7.480;2022-07-23T07:12:36;20.77;;;18.57;;
850;SDS011;412;51.400;7.480;2022-07-23T07:15:01;20.77;;;18.60;;
850;SDS011;412;51.400;7.480;2022-07-23T07:17:27;20.10;;;18.00;;
850;SDS011;412;51.400;7.480;2022-07-23T07:19:55;20.50;;;18.33;;
850;SDS011;412;51.400;7.480;2022-07-23T07:22:21;19.97;;;17.87;;
850;SDS011;412;51.400;7.480;2022-07-23T07:24:47;19.87;;;17.77;;
850;SDS011;412;51.400;7.480;2022-07-23T07:27:13;20.17;;;17.97;;
850;SDS011;412;51.400;7.480;2022-07-23T07:29:38;19.87;;;17.80;;
850;SDS011;412;51.400;7.480;2022-07-23T07:32:04;21.80;;;19.70;;
850;SDS011;412;51.400;7.480;2022-07-23T07:34:30;21.17;;;18.87;;
850;SDS011;412;51.400;7.480;2022-07-23T07:36:56;22.07;;;19.20;;
850;SDS011;412;51.400;7.480;2022-07-23T07:39:21;20.63;;;18.43;;
850;SDS011;412;51.400;7.480;2022-07-23T07:41:47;21.07;;;19.00;;
850;SDS011;412;51.400;7.480;2022-07-23T07:44:13;20.40;;;18.20;;
850;SDS011;412;51.400;7.480;2022-07-23T07:46:38;21.73;;;19.53;;
850;SDS011;412;51.400;7.480;2022-07-23T07:49:04;21.83;;;19.53;;
850;SDS011;412;51.400;7.480;2022-07-23T07:51:32;20.17;;;18.03;;
850;SDS011;412;51.400;7.480;2022-07-23T07:53:58;22.30;;;19.40;;
850;SDS011;412;51.400;7.480;2022-07-23T07:56:24;21.80;;;19.60;;
850;SDS011;412;51.400;7.480;2022-07-23T07:58:52;23.23;;;20.10;;
850;SDS011;412;51.400;7.480;2022-07-23T08:01:18;21.63;;;19.53;;
850;SDS011;412;51.400;7.480;2022-07-23T08:03:47;23.57;;;21.10;;
850;SDS011;412;51.400;7.480;2022-07-23T08:06:13;23.47;;;21.07;;
850;SDS011;412;51.400;7.480;2022-07-23T08:08:38;22.20;;;20.00;;
850;SDS011;412;51.400;7.480;2022-07-23T08:11:04;22.70;;;20.30;;
850;SDS011;412;51.400;7.480;2022-07-23T08:13:30;24.83;;;22.17;;
850;SDS011;412;51.400;7.480;2022-07-23T08:15:56;24.00;;;21.60;;
850;SDS011;412;51.400;7.480;2022-07-23T08:18:21;21.03;;;18.80;;
850;SDS011;412;51.400;7.480;2022-07-23T08:20:47;25.23;;;21.40;;
850;SDS011;412;51.400;7.480;2022-07-23T08:23:13;23.97;;;21.47;;
850;SDS011;412;51.400;7.480;2022-07-23T08:25:41;25.70;;;22.93;;
850;SDS011;412;51.400;7.480;2022-07-23T08:28:08;24.27;;;21.80;;
850;SDS011;412;51.400;7.480;2022-07-23T08:30:36;25.70;;;22.20;;
850;SDS011;412;51.400;7.480;2022-07-23T08:33:04;24.43;;;21.93;;
850;SDS011;412;51.400;7.480;2022-07-23T08:35:36;25.10;;;21.23;;
850;SDS011;412;51.400;7.480;2022-07-23T08:38:06;22.20;;;19.90;;
850;SDS011;412;51.400;7.480;2022-07-23T08:40:37;21.23;;;19.07;;
850;SDS011;412;51.400;7.480;2022-07-23T08:43:11;25.13;;;22.00;;
850;SDS011;412;51.400;7.480;2022-07-23T08:45:40;23.13;;;20.70;;
850;SDS011;412;51.400;7.480;2022-07-23T08:48:08;25.70;;;23.00;;
850;SDS011;412;51.400;7.480;2022-07-23T08:50:41;24.73;;;22.33;;
850;SDS011;412;51.400;7.480;2022-07-23T08:53:08;26.10;;;23.40;;
850;SDS011;412;51.400;7.480;2022-07-23T08:55:35;28.40;;;25.53;;
850;SDS011;412;51.400;7.480;2022-07-23T08:58:01;26.90;;;24.07;;
850;SDS011;412;51.400;7.480;2022-07-23T09:00:27;24.73;;;22.13;;
850;SDS011;412;51.400;7.480;2022-07-23T09:02:53;28.80;;;23.20;;
850;SDS011;412;51.400;7.480;2022-07-23T09:05:19;26.47;;;23.80;;
850;SDS011;412;51.400;7.480;2022-07-23T09:15:49;28.00;;;25.13;;
850;SDS011;412;51.400;7.480;2022-07-23T09:18:16;27.37;;;24.43;;
850;SDS011;412;51.400;7.480;2022-07-23T09:20:45;25.73;;;23.23;;
850;SDS011;412;51.400;7.480;2022-07-23T09:23:11;24.63;;;22.20;;
850;SDS011;412;51.400;7.480;2022-07-23T09:25:36;25.63;;;23.13;;
850;SDS011;412;51.400;7.480;2022-07-23T09:28:02;23.57;;;21.37;;
850;SDS011;412;51.400;7.480;2022-07-23T09:30:30;24.07;;;21.93;;
850;SDS011;412;51.400;7.480;2022-07-23T09:33:12;25.03;;;22.60;;
850;SDS011;412;51.400;7.480;2022-07-23T09:38:24;22.67;;;20.60;;
850;SDS011;412;51.400;7.480;2022-07-23T09:41:06;25.13;;;22.70;;
850;SDS011;412;51.400;7.480;2022-07-23T09:43:35;24.80;;;22.60;;
850;SDS011;412;51.400;7.480;2022-07-23T09:48:49;26.10;;;23.73;;
850;SDS011;412;51.400;7.480;2022-07-23T09:51:16;24.20;;;22.20;;
850;SDS011;412;51.400;7.480;2022-07-23T09:54:01;24.17;;;22.10;;
850;SDS011;412;51.400;7.480;2022-07-23T09:56:27;21.80;;;19.80;;
850;SDS011;412;51.400;7.480;2022-07-23T09:58:53;20.70;;;18.80;;
850;SDS011;412;51.400;7.480;2022-07-23T10:01:32;19.93;;;18.33;;
850;SDS011;412;51.400;7.480;2022-07-23T10:03:59;19.80;;;18.13;;
850;SDS011;412;51.400;7.480;2022-07-23T10:06:25;18.27;;;16.63;;
850;SDS011;412;51.400;7.480;2022-07-23T10:08:53;19.00;;;17.30;;
850;SDS011;412;51.400;7.480;2022-07-23T10:11:23;19.33;;;17.70;;
850;SDS011;412;51.400;7.480;2022-07-23T10:13:50;19.03;;;17.43;;
850;SDS011;412;51.400;7.480;2022-07-23T10:16:23;16.03;;;14.57;;
850;SDS011;412;51.400;7.480;2022-07-23T10:18:49;15.97;;;14.67;;
850;SDS011;412;51.400;7.480;2022-07-23T10:21:25;14.77;;;13.60;;
850;SDS011;412;51.400;7.480;2022-07-23T10:30:07;17.37;;;15.90;;
850;SDS011;412;51.400;7.480;2022-07-23T10:32:53;16.43;;;15.13;;
850;SDS011;412;51.400;7.480;2022-07-23T10:35:38;16.80;;;15.40;;
850;SDS011;412;51.400;7.480;2022-07-23T10:38:37;16.20;;;14.90;;
850;SDS011;412;51.400;7.480;2022-07-23T10:41:41;15.10;;;13.80;;
850;SDS011;412;51.400;7.480;2022-07-23T10:46:34;14.00;;;12.90;;
850;SDS011;412;51.400;7.480;2022-07-23T10:54:43;14.13;;;13.03;;
850;SDS011;412;51.400;7.480;2022-07-23T10:57:27;12.73;;;11.93;;
850;SDS011;412;51.400;7.480;2022-07-23T11:02:35;12.30;;;11.40;;
850;SDS011;412;51.400;7.480;2022-07-23T11:05:05;11.70;;;10.83;;
850;SDS011;412;51.400;7.480;2022-07-23T11:07:36;12.77;;;11.57;;
850;SDS011;412;51.400;7.480;2022-07-23T11:10:35;10.80;;;9.93;;
850;SDS011;412;51.400;7.480;2022-07-23T11:31:54;12.33;;;11.43;;
850;SDS011;412;51.400;7.480;2022-07-23T11:34:31;12.03;;;11.23;;
850;SDS011;412;51.400;7.480;2022-07-23T11:37:01;11.30;;;10.27;;
850;SDS011;412;51.400;7.480;2022-07-23T11:39:29;11.37;;;10.67;;
850;SDS011;412;51.400;7.480;2022-07-23T11:41:56;11.40;;;10.67;;
850;SDS011;412;51.400;7.480;2022-07-23T11:44:26;11.10;;;10.43;;
850;SDS011;412;51.400;7.480;2022-07-23T11:46:56;10.60;;;9.90;;
850;SDS011;412;51.400;7.480;2022-07-23T11:49:22;9.93;;;9.30;;
850;SDS011;412;51.400;7.480;2022-07-23T11:54:50;10.50;;;9.90;;
850;SDS011;412;51.400;7.480;2022-07-23T11:57:24;11.07;;;10.27;;
850;SDS011;412;51.400;7.480;2022-07-23T11:59:53;11.57;;;10.87;;
850;SDS011;412;51.400;7.480;2022-07-23T12:02:22;28.57;;;25.67;;
850;SDS011;412;51.400;7.480;2022-07-23T12:04:49;42.90;;;38.97;;
850;SDS011;412;51.400;7.480;2022-07-23T12:07:23;13.13;;;12.13;;
850;SDS011;412;51.400;7.480;2022-07-23T12:09:52;11.60;;;10.80;;
850;SDS011;412;51.400;7.480;2022-07-23T12:12:18;10.70;;;9.90;;
850;SDS011;412;51.400;7.480;2022-07-23T12:14:48;11.20;;;10.47;;
850;SDS011;412;51.400;7.480;2022-07-23T12:17:13;11.10;;;10.30;;
850;SDS011;412;51.400;7.480;2022-07-23T12:19:39;11.47;;;10.67;;
850;SDS011;412;51.400;7.480;2022-07-23T12:22:05;10.00;;;9.20;;
850;SDS011;412;51.400;7.480;2022-07-23T12:24:31;9.90;;;9.30;;
850;SDS011;412;51.400;7.480;2022-07-23T12:27:24;9.93;;;9.03;;
850;SDS011;412;51.400;7.480;2022-07-23T12:29:51;9.80;;;9.20;;
850;SDS011;412;51.400;7.480;2022-07-23T12:32:25;9.23;;;8.63;;
850;SDS011;412;51.400;7.480;2022-07-23T12:35:07;9.60;;;8.80;;
850;SDS011;412;51.400;7.480;2022-07-23T12:42:57;8.33;;;7.77;;
850;SDS011;412;51.400;7.480;2022-07-23T12:45:25;7.83;;;7.23;;
850;SDS011;412;51.400;7.480;2022-07-23T12:47:57;67.67;;;60.30;;
850;SDS011;412;51.400;7.480;2022-07-23T12:50:32;26.80;;;24.10;;
850;SDS011;412;51.400;7.480;2022-07-23T12:53:02;7.73;;;7.20;;
850;SDS011;412;51.400;7.480;2022-07-23T12:55:29;8.20;;;7.67;;
850;SDS011;412;51.400;7.480;2022-07-23T12:58:03;8.10;;;7.57;;
850;SDS011;412;51.400;7.480;2022-07-23T13:01:00;8.03;;;7.40;;
850;SDS011;412;51.400;7.480;2022-07-23T13:03:30;7.33;;;6.83;;
850;SDS011;412;51.400;7.480;2022-07-23T13:05:56;7.27;;;6.80;;
850;SDS011;412;51.400;7.480;2022-07-23T13:08:24;7.33;;;6.93;;
850;SDS011;412;51.400;7.480;2022-07-23T13:10:50;7.43;;;7.00;;
850;SDS011;412;51.400;7.480;2022-07-23T13:13:21;8.63;;;8.03;;
850;SDS011;412;51.400;7.480;2022-07-23T13:15:51;7.90;;;7.47;;
850;SDS011;412;51.400;7.480;2022-07-23T13:18:18;9.77;;;9.07;;
850;SDS011;412;51.400;7.480;2022-07-23T13:20:45;7.20;;;6.80;;
850;SDS011;412;51.400;7.480;2022-07-23T13:23:11;8.93;;;8.30;;
850;SDS011;412;51.400;7.480;2022-07-23T13:25:37;7.43;;;7.03;;
850;SDS011;412;51.400;7.480;2022-07-23T13:28:03;7.37;;;6.80;;
850;SDS011;412;51.400;7.480;2022-07-23T13:30:29;7.57;;;7.07;;
850;SDS011;412;51.400;7.480;2022-07-23T13:32:55;7.80;;;7.30;;
850;SDS011;412;51.400;7.480;2022-07-23T13:35:21;6.87;;;6.40;;
850;SDS011;412;51.400;7.480;2022-07-23T13:37:47;7.37;;;6.90;;
850;SDS011;412;51.400;7.480;2022-07-23T13:40:13;7.00;;;6.50;;
850;SDS011;412;51.400;7.480;2022-07-23T13:42:39;6.80;;;6.10;;
850;SDS011;412;51.400;7.480;2022-07-23T13:45:05;6.70;;;6.20;;
850;SDS011;412;51.400;7.480;2022-07-23T13:47:31;6.97;;;6.50;;
850;SDS011;412;51.400;7.480;2022-07-23T13:49:57;7.30;;;6.70;;
850;SDS011;412;51.400;7.480;2022-07-23T13:52:23;7.87;;;7.23;;
850;SDS011;412;51.400;7.480;2022-07-23T13:54:49;7.33;;;6.77;;
850;SDS011;412;51.400;7.480;2022-07-23T13:57:16;7.10;;;6.70;;
850;SDS011;412;51.400;7.480;2022-07-23T13:59:42;6.63;;;6.23;;
850;SDS011;412;51.400;7.480;2022-07-23T14:02:08;7.27;;;6.67;;
850;SDS011;412;51.400;7.480;2022-07-23T14:04:34;7.40;;;6.80;;
850;SDS011;412;51.400;7.480;2022-07-23T14:07:00;5.97;;;5.67;;
850;SDS011;412;51.400;7.480;2022-07-23T14:09:26;6.70;;;6.20;;
850;SDS011;412;51.400;7.480;2022-07-23T14:11:53;6.90;;;6.30;;
850;SDS011;412;51.400;7.480;2022-07-23T14:14:18;6.87;;;6.47;;
850;SDS011;412;51.400;7.480;2022-07-23T14:16:44;6.70;;;6.33;;
850;SDS011;412;51.400;7.480;2022-07-23T14:19:10;5.87;;;5.47;;
850;SDS011;412;51.400;7.480;2022-07-23T14:21:36;6.77;;;6.17;;
850;SDS011;412;51.400;7.480;2022-07-23T14:24:02;6.30;;;5.90;;
850;SDS011;412;51.400;7.480;2022-07-23T14:26:28;6.40;;;6.00;;
850;SDS011;412;51.400;7.480;2022-07-23T14:28:54;5.83;;;5.53;;
850;SDS011;412;51.400;7.480;2022-07-23T14:31:21;6.40;;;6.00;;
850;SDS011;412;51.400;7.480;2022-07-23T14:33:47;6.33;;;5.80;;
850;SDS011;412;51.400;7.480;2022-07-23T14:36:13;7.10;;;6.60;;
850;SDS011;412;51.400;7.480;2022-07-23T14:38:38;6.40;;;6.00;;
850;SDS011;412;51.400;7.480;2022-07-23T14:41:04;7.37;;;6.77;;
850;SDS011;412;51.400;7.480;2022-07-23T14:43:32;7.00;;;6.60;;
850;SDS011;412;51.400;7.480;2022-07-23T14:45:58;7.50;;;7.00;;
850;SDS011;412;51.400;7.480;2022-07-23T14:48:24;7.17;;;6.77;;
850;SDS011;412;51.400;7.480;2022-07-23T14:50:49;7.23;;;6.73;;
850;SDS011;412;51.400;7.480;2022-07-23T14:53:15;8.60;;;8.10;;
850;SDS011;412;51.400;7.480;2022-07-23T14:55:41;6.03;;;5.73;;
850;SDS011;412;51.400;7.480;2022-07-23T14:58:07;5.33;;;5.03;;
850;SDS011;412;51.400;7.480;2022-07-23T15:00:32;5.30;;;5.00;;
850;SDS011;412;51.400;7.480;2022-07-23T15:02:58;5.20;;;4.90;;
850;SDS011;412;51.400;7.480;2022-07-23T15:05:24;6.07;;;5.67;;
850;SDS011;412;51.400;7.480;2022-07-23T15:07:50;5.43;;;5.03;;
850;SDS011;412;51.400;7.480;2022-07-23T15:10:16;5.50;;;5.10;;
850;SDS011;412;51.400;7.480;2022-07-23T15:12:42;5.80;;;5.50;;
850;SDS011;412;51.400;7.480;2022-07-23T15:15:08;5.70;;;5.40;;
850;SDS011;412;51.400;7.480;2022-07-23T15:17:34;5.57;;;5.20;;
850;SDS011;412;51.400;7.480;2022-07-23T15:19:59;5.40;;;5.10;;
850;SDS011;412;51.400;7.480;2022-07-23T15:22:25;5.80;;;5.40;;
850;SDS011;412;51.400;7.480;2022-07-23T15:24:51;5.27;;;4.97;;
850;SDS011;412;51.400;7.480;2022-07-23T15:27:17;5.93;;;5.63;;
850;SDS011;412;51.400;7.480;2022-07-23T15:29:43;5.53;;;5.23;;
850;SDS011;412;51.400;7.480;2022-07-23T15:32:10;5.63;;;5.23;;
850;SDS011;412;51.400;7.480;2022-07-23T15:34:37;7.93;;;6.27;;
850;SDS011;412;51.400;7.480;2022-07-23T15:37:03;7.33;;;6.60;;
850;SDS011;412;51.400;7.480;2022-07-23T15:39:32;6.93;;;6.53;;
850;SDS011;412;51.400;7.480;2022-07-23T15:42:02;6.87;;;6.37;;
850;SDS011;412;51.400;7.480;2022-07-23T15:44:28;7.17;;;6.57;;
850;SDS011;412;51.400;7.480;2022-07-23T15:46:54;7.30;;;6.80;;
850;SDS011;412;51.400;7.480;2022-07-23T15:49:21;8.20;;;7.50;;
850;SDS011;412;51.400;7.480;2022-07-23T15:51:47;7.97;;;7.37;;
850;SDS011;412;51.400;7.480;2022-07-23T15:54:12;7.40;;;6.90;;
850;SDS011;412;51.400;7.480;2022-07-23T15:56:38;7.03;;;6.73;;
850;SDS011;412;51.400;7.480;2022-07-23T15:59:04;8.30;;;7.80;;
850;SDS011;412;51.400;7.480;2022-07-23T16:01:31;8.17;;;7.57;;
850;SDS011;412;51.400;7.480;2022-07-23T16:03:56;7.57;;;7.10;;
850;SDS011;412;51.400;7.480;2022-07-23T16:06:25;7.70;;;7.20;;
850;SDS011;412;51.400;7.480;2022-07-23T16:08:51;8.03;;;7.43;;
850;SDS011;412;51.400;7.480;2022-07-23T16:11:17;6.77;;;6.37;;
850;SDS011;412;51.400;7.480;2022-07-23T16:13:43;7.63;;;7.23;;
850;SDS011;412;51.400;7.480;2022-07-23T16:16:09;5.47;;;5.17;;
850;SDS011;412;51.400;7.480;2022-07-23T16:18:36;5.80;;;5.50;;
850;SDS011;412;51.400;7.480;2022-07-23T16:21:03;5.93;;;5.53;;